Peoria Heights, Illinois
Current Conditions -  °F | °C
As of 1:54 PM on Wednesday 17 Dec 2014 (Local Time) from KPIA Reporting Station
Broken Clouds Broken Clouds  
Wind Chill: -6°   Ceiling: 1800
Heat Index: -2°   Visibility: 10mi
Dew Point: -8°   Wind: 7mph
Humidity: 66%   Direction: 290°WNW
Pressure: 30.27"   Gusts: NA
Location:  40.7452°N, 89.5738°W
Report Text: KPIA 171954Z 29006KT 10SM BKN018 M02/M08 A3027 RMK AO2 SLP258 T10221078
Loading
Personal Weather Stations






























Interactive Weather Map New forecast layout! Learn more

10-Day Weather Forecast

Advertisements
Track Severe Weather on mobile